createdAt,value
2018-09-18T00:05:32.264Z,1003.6
2018-09-18T00:15:32.265Z,1003.5
2018-09-18T00:25:32.685Z,1003.5
2018-09-18T00:55:39.072Z,1003.2
2018-09-18T01:05:39.593Z,1003.3
2018-09-18T01:15:40.004Z,1003.2
2018-09-18T01:35:43.101Z,1003
2018-09-18T01:45:43.311Z,1003
2018-09-18T01:55:43.216Z,1002.9
2018-09-18T02:05:43.562Z,1002.9
2018-09-18T02:15:43.964Z,1002.8
2018-09-18T02:25:44.369Z,1002.7
2018-09-18T02:35:44.988Z,1002.8
2018-09-18T02:55:48.269Z,1002.6
2018-09-18T03:05:48.454Z,1002.5
2018-09-18T03:15:48.735Z,1002.4
2018-09-18T03:25:48.896Z,1002.4
2018-09-18T03:35:50.630Z,1002.4
2018-09-18T03:45:51.321Z,1002.3
2018-09-18T03:55:51.747Z,1002.3
2018-09-18T04:05:52.008Z,1002.1
2018-09-18T04:15:53.374Z,1002.1
2018-09-18T04:25:53.623Z,1002
2018-09-18T04:35:53.969Z,1001.9
2018-09-18T04:45:54.245Z,1001.8
2018-09-18T04:55:54.562Z,1001.9
2018-09-18T05:05:55.453Z,1001.8
2018-09-18T05:15:55.877Z,1001.8
2018-09-18T05:25:56.410Z,1001.8
2018-09-18T05:35:56.829Z,1001.7
2018-09-18T05:45:57.293Z,1001.9
2018-09-18T05:55:57.888Z,1001.8
2018-09-18T06:05:58.830Z,1001.7
2018-09-18T06:15:59.761Z,1001.8
2018-09-18T06:26:00.578Z,1001.7
2018-09-18T06:36:01.723Z,1001.6
2018-09-18T06:46:02.776Z,1001.7
2018-09-18T06:56:03.583Z,1001.6
2018-09-18T07:06:04.252Z,1001.5
2018-09-18T07:16:07.609Z,1001.5
2018-09-18T07:26:09.411Z,1001.5
2018-09-18T07:36:09.917Z,1001.4
2018-09-18T07:46:10.364Z,1001.4
2018-09-18T07:56:11.078Z,1001.4
2018-09-18T08:26:18.236Z,1001.2
2018-09-18T08:56:22.179Z,1001.1
2018-09-18T09:06:22.938Z,1001.2
2018-09-18T09:26:27.667Z,1000.9
2018-09-18T09:36:31.182Z,1000.9
2018-09-18T09:46:35.203Z,1000.9
2018-09-18T09:56:38.158Z,1000.7
2018-09-18T10:06:41.173Z,1000.7
2018-09-18T10:26:45.911Z,1000.4
2018-09-18T10:36:49.444Z,1000.4
2018-09-18T10:46:53.540Z,1000.2
2018-09-18T10:56:58.418Z,1000.3
2018-09-18T11:06:59.316Z,1000.1
2018-09-18T11:17:00.079Z,999.9
2018-09-18T11:27:01.393Z,999.9
2018-09-18T11:37:02.984Z,999.9
2018-09-18T11:47:04.264Z,999.9
2018-09-18T11:57:04.681Z,999.8
2018-09-18T12:07:05.729Z,999.7
2018-09-18T12:17:06.161Z,999.8
2018-09-18T12:27:06.439Z,999.7
2018-09-18T12:37:09.210Z,999.6
2018-09-18T12:47:09.462Z,999.7
2018-09-18T12:57:09.931Z,999.8
2018-09-18T13:07:10.121Z,999.6
2018-09-18T13:17:10.662Z,999.5
2018-09-18T13:27:12.692Z,999.3
2018-09-18T13:37:13.318Z,999.3
2018-09-18T13:47:13.306Z,999.3
2018-09-18T13:57:13.456Z,999.2
2018-09-18T14:17:16.171Z,999.1
2018-09-18T14:27:16.782Z,999.1
2018-09-18T14:47:19.999Z,999.2
2018-09-18T14:57:20.497Z,999.2
2018-09-18T15:07:20.818Z,999.2
2018-09-18T15:27:24.801Z,999.3
2018-09-18T15:37:25.024Z,999.5
2018-09-18T15:47:25.171Z,999.5
2018-09-18T16:07:29.183Z,999.6
2018-09-18T16:17:29.892Z,999.6
2018-09-18T16:37:32.933Z,999.7
2018-09-18T16:57:35.802Z,999.8
2018-09-18T17:17:39.012Z,1000.3
2018-09-18T17:27:38.989Z,1000.4
2018-09-18T17:37:38.980Z,1000.5
2018-09-18T17:47:39.519Z,1000.7
2018-09-18T17:57:39.866Z,1000.7
2018-09-18T18:07:40.074Z,1000.9
2018-09-18T18:17:40.628Z,1000.9
2018-09-18T18:27:40.710Z,1001.2
2018-09-18T18:37:42.162Z,1001.4
2018-09-18T18:47:42.186Z,1001.5
2018-09-18T18:57:42.247Z,1001.5
2018-09-18T19:07:42.564Z,1001.8
2018-09-18T19:17:42.944Z,1002
2018-09-18T19:27:44.620Z,1002.2
2018-09-18T19:37:44.925Z,1002.3
2018-09-18T19:47:45.250Z,1002.5
2018-09-18T19:57:45.656Z,1002.8
2018-09-18T20:07:45.844Z,1003
2018-09-18T20:17:46.191Z,1003.1
2018-09-18T20:27:46.553Z,1003.2
2018-09-18T20:47:49.712Z,1003.4
2018-09-18T20:57:49.830Z,1003.5
2018-09-18T21:07:49.961Z,1003.7
2018-09-18T21:17:50.193Z,1003.8
2018-09-18T21:27:50.416Z,1003.8
2018-09-18T21:37:50.539Z,1003.8
2018-09-18T21:47:50.848Z,1003.9
2018-09-18T21:57:51.241Z,1004
2018-09-18T22:07:51.185Z,1004.1
2018-09-18T22:17:51.421Z,1004.2
2018-09-18T22:27:51.602Z,1004.2
2018-09-18T22:37:51.918Z,1004.3
2018-09-18T22:47:52.325Z,1004.3
2018-09-18T22:57:52.658Z,1004.4
2018-09-18T23:07:52.871Z,1004.5
2018-09-18T23:17:53.074Z,1004.6
2018-09-18T23:27:53.342Z,1004.7
2018-09-18T23:47:56.749Z,1004.6
2018-09-18T23:57:57.009Z,1004.8
